Terminal Aerodrome Forecast
Issued by NWS Duluth, MN

Home | Current Version | Previous Version | Text Only | Print | Product List | Glossary On
Versions: 1 2 3 4 5 6 7 8 9 10 11 12 13 14 15 16 17 18 19 20 21 22 23
000
FTUS43 KDLH 301739
TAFINL
TAF
KINL 301739Z 3018/3118 36007KT P6SM SCT035
     FM302300 07004KT P6SM VCSH OVC070
     FM310800 08011G20KT P6SM -RA VCTS SCT015CB BKN035
     FM311400 11012G19KT 5SM -RA BR VCTS OVC020CB=

USA.gov is the U.S. government's official web portal to all federal, state and local government web resources and services.